Portada
METAR-TAF:

METAR-TAF

Aeropuertos :

Estocolmo-Arlanda, Suecia

Aeropuerto de Estocolmo-Arlanda

latitud: 59-39N, longitud: 017-57E, altitud: 38 m

Observación

El informe se hizo hace 34 minutos, a las 23:50 UTC
Viento 10 kt del noroeste
Temperatura -1°C
Humedad 93%
Presión 1001 hPa
Visibilidad 10 km o más
Cielo cubierto a una altura de 800 ft

METAR: ESSA 192350Z 32010KT 9999 OVC008 M01/M02 Q1001 R88/19//68 TEMPO 9999 NSW BKN017

Hora: 01:24 (00:24 UTC)

Pronóstico

El informe se hizo hace 54 minutos, a las 23:30 UTC
Pronóstico válido del 20 a las 00 UTC al 20 a las 24 UTC
Viento 8 kt del noroeste
Visibilidad 10 km o más
Cielo nuboso a una altura de 2000 ft
Temporalmente
del 20 a las 00 UTC al 20 a las 05 UTC
Visibilidad: 2500 m
Cielo nuboso a una altura de 800 ft
nieve

TAF: ESSA 192330Z 2000/2024 32008KT 9999 BKN020 TEMPO 2000/2005 2500 SN BKN008

Observaciones y pronósticos meteorológicos de más de 4000 aeropuertos (mensajes METAR y TAF).

Los puntos amarillos y rojos representan las estaciones disponibles.

Ponga el ratón en el punto deseado para ver el nombre de la estación.

Haga clic para ver las observaciones y los pronósticos meteorológicos.

Para cambiar el mapa : haga clic en los botones verdes con una cruz de color negro para hacer un zoom, en el botón verde con un guión para alejar o en las flechas verdes para mapas adyacentes.


METAR-TAF: